createdAt,value
2022-10-20T00:00:15.925Z,8.17
2022-10-20T00:01:18.835Z,8.07
2022-10-20T00:02:20.424Z,8.10
2022-10-20T00:03:22.222Z,8.11
2022-10-20T00:04:23.831Z,8.14
2022-10-20T00:05:25.367Z,8.05
2022-10-20T00:06:28.762Z,8.04
2022-10-20T00:07:30.380Z,8.05
2022-10-20T00:08:31.967Z,8.05
2022-10-20T00:09:33.565Z,8.01
2022-10-20T00:10:35.174Z,8.01
2022-10-20T00:11:36.796Z,8.02
2022-10-20T00:12:38.659Z,8.07
2022-10-20T00:13:41.001Z,8.08
2022-10-20T00:14:42.574Z,8.05
2022-10-20T00:15:54.342Z,8.07
2022-10-20T00:16:55.967Z,8.08
2022-10-20T00:17:57.529Z,8.10
2022-10-20T00:18:59.269Z,8.10
2022-10-20T00:20:00.910Z,8.11
2022-10-20T00:21:15.871Z,8.05
2022-10-20T00:22:17.489Z,8.07
2022-10-20T00:23:19.254Z,8.10
2022-10-20T00:24:21.666Z,8.12
2022-10-20T00:25:23.249Z,8.08
2022-10-20T00:26:25.811Z,8.12
2022-10-20T00:27:27.471Z,8.02
2022-10-20T00:28:29.106Z,7.98
2022-10-20T00:29:30.739Z,7.94
2022-10-20T00:30:32.296Z,7.95
2022-10-20T00:31:33.851Z,7.97
2022-10-20T00:32:35.706Z,7.98
2022-10-20T00:33:37.437Z,7.93
2022-10-20T00:34:39.029Z,8.00
2022-10-20T00:35:40.603Z,7.93
2022-10-20T00:36:42.294Z,7.98
2022-10-20T00:37:43.862Z,7.95
2022-10-20T00:38:45.592Z,7.86
2022-10-20T00:39:47.181Z,7.83
2022-10-20T00:40:48.744Z,7.81
2022-10-20T00:41:50.282Z,7.87
2022-10-20T00:42:51.837Z,7.76
2022-10-20T00:43:54.202Z,7.79
2022-10-20T00:44:57.626Z,7.74
2022-10-20T00:45:59.193Z,7.79
2022-10-20T00:47:00.797Z,7.73
2022-10-20T00:48:14.178Z,7.70
2022-10-20T00:49:18.052Z,7.73
2022-10-20T00:50:30.936Z,7.71
2022-10-20T00:51:32.494Z,7.71
2022-10-20T00:52:34.300Z,7.63
2022-10-20T00:53:36.025Z,7.69
2022-10-20T00:54:37.631Z,7.71
2022-10-20T00:55:41.102Z,7.70
2022-10-20T00:56:43.596Z,7.74
2022-10-20T00:57:47.001Z,7.77
2022-10-20T00:58:48.680Z,7.79
2022-10-20T00:59:50.244Z,7.79
2022-10-20T01:00:53.520Z,7.86
2022-10-20T01:01:55.238Z,7.76
2022-10-20T01:02:58.394Z,7.67
2022-10-20T01:04:00.007Z,7.73
2022-10-20T01:05:01.774Z,7.60
2022-10-20T01:06:03.752Z,7.66
2022-10-20T01:07:05.589Z,7.65
2022-10-20T01:08:07.152Z,7.59
2022-10-20T01:09:08.831Z,7.66
2022-10-20T01:10:10.564Z,7.63
2022-10-20T01:11:14.966Z,7.65
2022-10-20T01:12:35.456Z,7.66
2022-10-20T01:13:36.977Z,7.63
2022-10-20T01:15:07.902Z,7.56
2022-10-20T01:16:14.213Z,7.58
2022-10-20T01:17:25.811Z,7.59
2022-10-20T01:18:35.430Z,7.58
2022-10-20T01:19:58.360Z,7.62
2022-10-20T01:21:20.171Z,7.66
2022-10-20T01:22:39.997Z,7.65
2022-10-20T01:24:01.415Z,7.63
2022-10-20T01:25:21.307Z,7.53
2022-10-20T01:26:56.262Z,7.62
2022-10-20T01:27:59.918Z,7.60
2022-10-20T01:29:25.125Z,7.49
2022-10-20T01:30:26.720Z,7.59
2022-10-20T01:31:52.709Z,7.55
2022-10-20T01:33:17.349Z,7.52
2022-10-20T01:34:31.711Z,7.46
2022-10-20T01:35:36.350Z,7.53
2022-10-20T01:36:45.521Z,7.56
2022-10-20T01:38:05.847Z,7.56
2022-10-20T01:39:18.737Z,7.58
2022-10-20T01:40:22.381Z,7.58
2022-10-20T01:41:51.509Z,7.63
2022-10-20T01:42:53.318Z,7.63
2022-10-20T01:43:54.847Z,7.59
2022-10-20T01:44:58.900Z,7.59
2022-10-20T01:46:00.466Z,7.60
2022-10-20T01:47:02.378Z,7.63
2022-10-20T01:48:05.648Z,7.65
2022-10-20T01:49:07.235Z,7.65
2022-10-20T01:50:08.954Z,7.70
2022-10-20T01:51:10.536Z,7.70
2022-10-20T01:52:12.260Z,7.71
2022-10-20T01:53:13.889Z,7.69
2022-10-20T01:54:26.296Z,7.69
2022-10-20T01:55:27.834Z,7.71
2022-10-20T01:57:05.820Z,7.69
2022-10-20T01:58:29.333Z,7.66
2022-10-20T01:59:30.802Z,7.60
2022-10-20T02:00:32.343Z,7.60
2022-10-20T02:01:33.890Z,7.60
2022-10-20T02:02:52.635Z,7.59
2022-10-20T02:03:58.515Z,7.59
2022-10-20T02:05:19.051Z,7.62
2022-10-20T02:06:20.544Z,7.65
2022-10-20T02:07:27.640Z,7.59
2022-10-20T02:08:41.129Z,7.63
2022-10-20T02:09:51.137Z,7.60
2022-10-20T02:10:55.839Z,7.56
2022-10-20T02:12:03.442Z,7.60
2022-10-20T02:13:05.023Z,7.56
2022-10-20T02:14:07.273Z,7.50
2022-10-20T02:15:09.702Z,7.49
2022-10-20T02:16:18.236Z,7.49
2022-10-20T02:17:19.809Z,7.43
2022-10-20T02:18:35.718Z,7.43
2022-10-20T02:19:40.451Z,7.43
2022-10-20T02:20:45.292Z,7.42
2022-10-20T02:21:46.874Z,7.48
2022-10-20T02:22:48.408Z,7.43
2022-10-20T02:23:50.628Z,7.43
2022-10-20T02:24:52.279Z,7.43
2022-10-20T02:25:53.863Z,7.42
2022-10-20T02:26:56.006Z,7.43
2022-10-20T02:27:57.588Z,7.42
2022-10-20T02:29:00.823Z,7.45
2022-10-20T02:30:11.023Z,7.39
2022-10-20T02:31:12.650Z,7.43
2022-10-20T02:32:14.261Z,7.42
2022-10-20T02:33:16.742Z,7.45
2022-10-20T02:34:18.285Z,7.40
2022-10-20T02:35:22.074Z,7.39
2022-10-20T02:36:26.392Z,7.32
2022-10-20T02:37:28.044Z,7.26
2022-10-20T02:38:29.610Z,7.26
2022-10-20T02:39:31.177Z,7.29
2022-10-20T02:40:32.793Z,7.28
2022-10-20T02:41:34.399Z,7.26
2022-10-20T02:42:35.993Z,7.22
2022-10-20T02:43:37.577Z,7.23
2022-10-20T02:44:39.143Z,7.20
2022-10-20T02:45:40.766Z,7.25
2022-10-20T02:46:42.382Z,7.23
2022-10-20T02:47:43.972Z,7.19
2022-10-20T02:48:45.840Z,7.16
2022-10-20T02:49:47.381Z,7.20
2022-10-20T02:50:48.919Z,7.18
2022-10-20T02:51:50.635Z,7.22
2022-10-20T02:52:52.218Z,7.25
2022-10-20T02:53:54.872Z,7.25
2022-10-20T02:54:56.432Z,7.26
2022-10-20T02:55:58.934Z,7.26
2022-10-20T02:57:00.584Z,7.25
2022-10-20T02:58:02.142Z,7.23
2022-10-20T02:59:03.702Z,7.23
2022-10-20T03:00:06.741Z,7.25
2022-10-20T03:01:08.346Z,7.28
2022-10-20T03:02:09.918Z,7.26
2022-10-20T03:03:11.506Z,7.25
2022-10-20T03:04:13.292Z,7.23
2022-10-20T03:05:15.079Z,7.23
2022-10-20T03:06:16.723Z,7.26
2022-10-20T03:07:18.269Z,7.29
2022-10-20T03:08:19.923Z,7.23
2022-10-20T03:09:21.519Z,7.23
2022-10-20T03:10:23.123Z,7.22
2022-10-20T03:11:24.677Z,7.19
2022-10-20T03:12:28.914Z,7.20
2022-10-20T03:13:33.171Z,7.11
2022-10-20T03:14:34.828Z,7.15
2022-10-20T03:15:36.722Z,7.12
2022-10-20T03:16:38.379Z,7.12
2022-10-20T03:17:39.929Z,7.12
2022-10-20T03:18:41.472Z,7.12
2022-10-20T03:19:43.043Z,7.11
2022-10-20T03:20:44.661Z,7.16
2022-10-20T03:21:46.859Z,7.16
2022-10-20T03:22:48.408Z,7.15
2022-10-20T03:23:49.952Z,7.12
2022-10-20T03:24:51.474Z,7.14
2022-10-20T03:25:53.066Z,7.14
2022-10-20T03:26:54.678Z,7.11
2022-10-20T03:27:56.237Z,7.14
2022-10-20T03:28:57.799Z,7.14
2022-10-20T03:29:59.340Z,7.14
2022-10-20T03:31:00.898Z,7.16
2022-10-20T03:32:02.527Z,7.18
2022-10-20T03:33:04.116Z,7.19
2022-10-20T03:34:05.698Z,7.18
2022-10-20T03:35:07.797Z,7.20
2022-10-20T03:36:09.566Z,7.22
2022-10-20T03:37:11.181Z,7.20
2022-10-20T03:38:12.745Z,7.22
2022-10-20T03:39:14.361Z,7.22
2022-10-20T03:40:15.916Z,7.22
2022-10-20T03:41:17.477Z,7.19
2022-10-20T03:42:19.034Z,7.23
2022-10-20T03:43:20.565Z,7.16
2022-10-20T03:44:22.246Z,7.18
2022-10-20T03:45:23.814Z,7.15
2022-10-20T03:46:25.363Z,7.18
2022-10-20T03:47:26.947Z,7.14
2022-10-20T03:48:28.516Z,7.14
2022-10-20T03:49:31.658Z,7.16
2022-10-20T03:50:33.205Z,7.12
2022-10-20T03:51:34.829Z,7.14
2022-10-20T03:52:37.279Z,7.12
2022-10-20T03:53:39.189Z,7.11
2022-10-20T03:54:41.071Z,7.15
2022-10-20T03:55:42.630Z,7.15
2022-10-20T03:56:44.238Z,7.16
2022-10-20T03:57:45.948Z,7.12
2022-10-20T03:58:47.595Z,7.09
2022-10-20T03:59:49.186Z,7.11
2022-10-20T04:00:50.802Z,7.08
2022-10-20T04:01:52.411Z,7.09
2022-10-20T04:02:54.015Z,7.11
2022-10-20T04:03:55.717Z,7.05
2022-10-20T04:04:57.297Z,7.04
2022-10-20T04:05:58.910Z,7.04
2022-10-20T04:07:00.458Z,7.08
2022-10-20T04:08:02.039Z,7.11
2022-10-20T04:09:05.016Z,7.11
2022-10-20T04:10:07.053Z,7.11
2022-10-20T04:11:08.659Z,7.11
2022-10-20T04:12:10.208Z,7.11
2022-10-20T04:13:11.819Z,7.11
2022-10-20T04:14:13.418Z,7.12
2022-10-20T04:15:15.065Z,7.11
2022-10-20T04:16:16.680Z,7.14
2022-10-20T04:17:18.230Z,7.08
2022-10-20T04:18:19.814Z,7.05
2022-10-20T04:19:21.448Z,7.07
2022-10-20T04:20:23.022Z,7.07
2022-10-20T04:21:25.844Z,7.04
2022-10-20T04:22:27.399Z,7.01
2022-10-20T04:23:29.160Z,6.99
2022-10-20T04:24:30.853Z,6.92
2022-10-20T04:25:32.395Z,6.97
2022-10-20T04:26:34.001Z,6.98
2022-10-20T04:27:35.902Z,6.92
2022-10-20T04:28:37.799Z,6.92
2022-10-20T04:29:39.463Z,6.89
2022-10-20T04:30:41.497Z,6.88
2022-10-20T04:31:46.697Z,6.84
2022-10-20T04:32:50.613Z,6.92
2022-10-20T04:33:52.218Z,6.94
2022-10-20T04:34:53.883Z,6.87
2022-10-20T04:36:02.651Z,6.88
2022-10-20T04:37:04.317Z,6.83
2022-10-20T04:38:05.888Z,6.80
2022-10-20T04:39:07.674Z,6.71
2022-10-20T04:40:09.566Z,6.70
2022-10-20T04:41:11.458Z,6.67
2022-10-20T04:42:13.058Z,6.73
2022-10-20T04:43:14.657Z,6.70
2022-10-20T04:44:16.297Z,6.67
2022-10-20T04:45:17.916Z,6.68
2022-10-20T04:46:19.572Z,6.68
2022-10-20T04:47:21.126Z,6.68
2022-10-20T04:48:22.678Z,6.68
2022-10-20T04:49:24.303Z,6.67
2022-10-20T04:50:25.870Z,6.70
2022-10-20T04:51:27.452Z,6.67
2022-10-20T04:52:29.623Z,6.63
2022-10-20T04:53:31.262Z,6.61
2022-10-20T04:54:32.837Z,6.56
2022-10-20T04:55:34.502Z,6.53
2022-10-20T04:56:36.025Z,6.51
2022-10-20T04:57:37.810Z,6.51
2022-10-20T04:58:39.586Z,6.53
2022-10-20T04:59:41.186Z,6.51
2022-10-20T05:00:42.715Z,6.47
2022-10-20T05:01:44.377Z,6.48
2022-10-20T05:02:46.017Z,6.46
2022-10-20T05:03:47.751Z,6.43
2022-10-20T05:04:49.366Z,6.41
2022-10-20T05:05:50.923Z,6.44
2022-10-20T05:06:52.500Z,6.44
2022-10-20T05:07:54.054Z,6.43
2022-10-20T05:09:00.161Z,6.41
2022-10-20T05:10:01.759Z,6.40
2022-10-20T05:11:03.364Z,6.38
2022-10-20T05:12:05.072Z,6.40
2022-10-20T05:13:06.668Z,6.37
2022-10-20T05:14:08.409Z,6.32
2022-10-20T05:15:10.058Z,6.32
2022-10-20T05:16:11.847Z,6.32
2022-10-20T05:17:13.557Z,6.29
2022-10-20T05:18:15.124Z,6.23
2022-10-20T05:19:16.992Z,6.26
2022-10-20T05:20:18.593Z,6.24
2022-10-20T05:21:22.368Z,6.26
2022-10-20T05:22:23.959Z,6.26
2022-10-20T05:23:25.601Z,6.26
2022-10-20T05:24:29.924Z,6.27
2022-10-20T05:25:36.452Z,6.26
2022-10-20T05:26:38.511Z,6.26
2022-10-20T05:27:40.061Z,6.30
2022-10-20T05:28:45.968Z,6.27
2022-10-20T05:29:47.560Z,6.34
2022-10-20T05:30:49.214Z,6.40
2022-10-20T05:31:50.844Z,6.36
2022-10-20T05:32:52.376Z,6.33
2022-10-20T05:33:55.068Z,6.32
2022-10-20T05:34:56.874Z,6.34
2022-10-20T05:35:58.480Z,6.33
2022-10-20T05:37:00.155Z,6.30
2022-10-20T05:38:01.822Z,6.32
2022-10-20T05:39:03.503Z,6.32
2022-10-20T05:40:06.812Z,6.27
2022-10-20T05:41:13.049Z,6.33
2022-10-20T05:42:14.653Z,6.41
2022-10-20T05:43:17.427Z,6.44
2022-10-20T05:44:19.103Z,6.46
2022-10-20T05:45:20.681Z,6.50
2022-10-20T05:46:22.283Z,6.58
2022-10-20T05:47:23.903Z,6.77
2022-10-20T05:48:25.463Z,6.98
2022-10-20T05:49:27.044Z,7.05
2022-10-20T05:50:28.583Z,7.25
2022-10-20T05:51:32.037Z,7.39
2022-10-20T05:52:35.086Z,7.48
2022-10-20T05:53:37.122Z,7.55
2022-10-20T05:54:38.667Z,7.84
2022-10-20T05:55:40.226Z,8.02
2022-10-20T05:56:41.896Z,8.04
2022-10-20T05:57:43.503Z,7.98
2022-10-20T05:58:45.517Z,7.97
2022-10-20T05:59:47.095Z,8.07
2022-10-20T06:00:52.845Z,7.94
2022-10-20T06:01:54.390Z,7.83
2022-10-20T06:02:56.068Z,7.93
2022-10-20T06:03:59.141Z,7.97
2022-10-20T06:05:00.715Z,8.02
2022-10-20T06:06:02.455Z,8.07
2022-10-20T06:07:05.879Z,8.02
2022-10-20T06:08:07.881Z,8.02
2022-10-20T06:09:09.514Z,8.01
2022-10-20T06:10:11.633Z,8.01
2022-10-20T06:11:13.621Z,7.98
2022-10-20T06:12:15.231Z,7.91
2022-10-20T06:13:16.818Z,7.91
2022-10-20T06:14:18.504Z,7.89
2022-10-20T06:15:21.012Z,7.87
2022-10-20T06:16:24.030Z,7.90
2022-10-20T06:17:25.630Z,7.89
2022-10-20T06:18:27.192Z,7.91
2022-10-20T06:19:28.819Z,7.97
2022-10-20T06:20:30.435Z,7.95
2022-10-20T06:21:32.666Z,8.01
2022-10-20T06:22:34.519Z,8.02
2022-10-20T06:23:36.722Z,8.04
2022-10-20T06:24:38.276Z,8.04
2022-10-20T06:25:39.925Z,8.05
2022-10-20T06:26:41.525Z,8.14
2022-10-20T06:27:44.564Z,8.18
2022-10-20T06:28:51.538Z,8.25
2022-10-20T06:29:54.820Z,8.32
2022-10-20T06:30:56.437Z,8.35
2022-10-20T06:31:57.976Z,8.41
2022-10-20T06:32:59.516Z,8.42
2022-10-20T06:34:01.154Z,8.46
2022-10-20T06:35:02.962Z,8.52
2022-10-20T06:36:04.652Z,8.54
2022-10-20T06:37:06.299Z,8.59
2022-10-20T06:38:07.852Z,8.62
2022-10-20T06:39:11.997Z,8.68
2022-10-20T06:40:13.560Z,8.71
2022-10-20T06:41:16.401Z,8.76
2022-10-20T06:42:18.026Z,8.77
2022-10-20T06:43:19.599Z,8.76
2022-10-20T06:44:22.727Z,8.76
2022-10-20T06:45:24.287Z,8.76
2022-10-20T06:46:30.666Z,8.80
2022-10-20T06:47:32.283Z,8.82
2022-10-20T06:48:34.427Z,8.82
2022-10-20T06:49:36.095Z,8.86
2022-10-20T06:50:37.630Z,8.92
2022-10-20T06:51:39.196Z,8.96
2022-10-20T06:52:40.936Z,8.99
2022-10-20T06:53:45.851Z,9.09
2022-10-20T06:54:48.459Z,9.14
2022-10-20T06:56:23.722Z,9.23
2022-10-20T06:57:25.275Z,9.26
2022-10-20T06:58:27.322Z,9.31
2022-10-20T06:59:28.887Z,9.37
2022-10-20T07:01:33.444Z,9.46
2022-10-20T07:02:35.342Z,9.52
2022-10-20T07:03:37.222Z,9.55
2022-10-20T07:04:38.849Z,9.57
2022-10-20T07:05:40.419Z,9.62
2022-10-20T07:06:43.551Z,9.68
2022-10-20T07:07:45.141Z,9.71
2022-10-20T07:08:46.866Z,9.79
2022-10-20T07:09:48.519Z,9.81
2022-10-20T07:11:28.957Z,9.82
2022-10-20T07:12:30.668Z,9.87
2022-10-20T07:13:32.300Z,9.91
2022-10-20T07:14:37.349Z,9.85
2022-10-20T07:15:38.947Z,9.88
2022-10-20T07:16:40.509Z,9.94
2022-10-20T07:17:42.076Z,9.98
2022-10-20T07:19:50.208Z,10.02
2022-10-20T07:20:51.779Z,10.10
2022-10-20T07:21:53.473Z,10.15
2022-10-20T07:22:55.100Z,10.25
2022-10-20T07:23:56.652Z,10.28
2022-10-20T07:24:59.596Z,10.33
2022-10-20T07:26:22.497Z,10.39
2022-10-20T07:27:24.113Z,10.42
2022-10-20T07:28:25.686Z,10.48
2022-10-20T07:29:27.319Z,10.49
2022-10-20T07:30:29.032Z,10.56
2022-10-20T07:31:38.894Z,10.63
2022-10-20T07:32:40.471Z,10.69
2022-10-20T07:33:42.022Z,10.73
2022-10-20T07:34:43.776Z,10.76
2022-10-20T07:35:45.423Z,10.74
2022-10-20T07:36:47.482Z,10.80
2022-10-20T07:37:50.164Z,10.80
2022-10-20T07:38:52.819Z,10.81
2022-10-20T07:39:54.394Z,10.85
2022-10-20T07:41:02.427Z,10.89
2022-10-20T07:42:04.114Z,10.93
2022-10-20T07:43:05.714Z,10.96
2022-10-20T07:44:07.581Z,10.97
2022-10-20T07:45:09.576Z,11.06
2022-10-20T07:46:11.400Z,11.10
2022-10-20T07:47:13.032Z,11.10
2022-10-20T07:48:14.719Z,11.11
2022-10-20T07:49:42.853Z,11.11
2022-10-20T07:50:38.019Z,11.08
2022-10-20T07:51:39.623Z,11.07
2022-10-20T07:52:41.343Z,11.10
2022-10-20T07:53:43.060Z,11.10
2022-10-20T07:54:45.169Z,11.11
2022-10-20T07:55:46.746Z,11.15
2022-10-20T07:56:49.419Z,11.11
2022-10-20T07:57:50.978Z,11.14
2022-10-20T07:58:52.518Z,11.15
2022-10-20T07:59:54.145Z,11.17
2022-10-20T08:00:55.674Z,11.18
2022-10-20T08:01:59.569Z,11.22
2022-10-20T08:03:01.784Z,11.27
2022-10-20T08:04:03.735Z,11.30
2022-10-20T08:05:05.694Z,11.36
2022-10-20T08:06:07.372Z,11.38
2022-10-20T08:07:08.940Z,11.41
2022-10-20T08:08:10.489Z,11.42
2022-10-20T08:09:12.077Z,11.42
2022-10-20T08:10:13.726Z,11.45
2022-10-20T08:11:15.333Z,11.44
2022-10-20T08:12:17.104Z,11.48
2022-10-20T08:13:18.698Z,11.50
2022-10-20T08:14:20.240Z,11.52
2022-10-20T08:15:21.885Z,11.54
2022-10-20T08:16:38.801Z,11.55
2022-10-20T08:17:40.392Z,11.59
2022-10-20T08:18:46.925Z,11.61
2022-10-20T08:20:03.500Z,11.64
2022-10-20T08:21:09.303Z,11.68
2022-10-20T08:22:10.898Z,11.69
2022-10-20T08:23:13.242Z,11.76
2022-10-20T08:24:14.800Z,11.78
2022-10-20T08:25:17.688Z,11.81
2022-10-20T08:26:23.620Z,11.78
2022-10-20T08:27:25.256Z,11.81
2022-10-20T08:28:27.137Z,11.82
2022-10-20T08:29:28.862Z,11.82
2022-10-20T08:30:30.514Z,11.83
2022-10-20T08:31:32.054Z,11.89
2022-10-20T08:32:33.910Z,11.92
2022-10-20T08:33:35.789Z,11.90
2022-10-20T08:37:57.509Z,11.92
2022-10-20T08:39:03.352Z,11.90
2022-10-20T08:40:07.996Z,11.95
2022-10-20T08:41:18.728Z,11.99
2022-10-20T08:42:20.419Z,12.02
2022-10-20T08:43:21.977Z,12.06
2022-10-20T08:44:27.648Z,12.15
2022-10-20T08:45:29.488Z,12.16
2022-10-20T08:46:35.597Z,12.25
2022-10-20T08:47:37.445Z,12.26
2022-10-20T08:48:39.193Z,12.30
2022-10-20T08:49:40.828Z,12.30
2022-10-20T08:50:47.011Z,12.29
2022-10-20T08:51:48.635Z,12.29
2022-10-20T08:52:54.934Z,12.34
2022-10-20T08:53:57.452Z,12.36
2022-10-20T08:54:59.123Z,12.36
2022-10-20T08:56:00.693Z,12.37
2022-10-20T08:57:02.277Z,12.36
2022-10-20T08:58:06.003Z,12.37
2022-10-20T08:59:34.125Z,12.41
2022-10-20T09:00:37.215Z,12.46
2022-10-20T09:01:39.211Z,12.50
2022-10-20T09:02:40.881Z,12.48
2022-10-20T09:03:42.481Z,12.53
2022-10-20T09:04:48.443Z,12.56
2022-10-20T09:05:56.739Z,12.57
2022-10-20T09:07:00.527Z,12.58
2022-10-20T09:08:02.313Z,12.60
2022-10-20T09:09:04.718Z,12.67
2022-10-20T09:10:22.414Z,12.73
2022-10-20T09:11:25.587Z,12.78
2022-10-20T09:12:30.965Z,12.81
2022-10-20T09:13:33.015Z,12.84
2022-10-20T09:14:36.349Z,12.88
2022-10-20T09:15:37.924Z,12.89
2022-10-20T09:16:48.462Z,12.92
2022-10-20T09:18:03.476Z,12.98
2022-10-20T09:19:07.162Z,12.98
2022-10-20T09:20:32.949Z,13.01
2022-10-20T09:21:34.530Z,13.04
2022-10-20T09:22:36.321Z,13.05
2022-10-20T09:23:42.864Z,13.11
2022-10-20T09:24:44.742Z,13.12
2022-10-20T09:25:46.376Z,13.19
2022-10-20T09:27:04.477Z,13.19
2022-10-20T09:28:06.060Z,13.23
2022-10-20T09:29:13.349Z,13.26
2022-10-20T09:30:28.638Z,13.30
2022-10-20T09:31:34.122Z,13.32
2022-10-20T09:32:51.405Z,13.28
2022-10-20T09:33:53.055Z,13.26
2022-10-20T09:35:02.307Z,13.25
2022-10-20T09:36:04.914Z,13.20
2022-10-20T09:37:11.844Z,13.18
2022-10-20T09:38:22.666Z,13.22
2022-10-20T09:39:26.661Z,13.25
2022-10-20T09:40:28.391Z,13.18
2022-10-20T09:41:30.745Z,13.19
2022-10-20T09:42:36.055Z,13.19
2022-10-20T09:43:39.757Z,13.20
2022-10-20T09:45:19.153Z,13.22
2022-10-20T09:46:22.714Z,13.26
2022-10-20T09:47:24.919Z,13.30
2022-10-20T09:48:34.741Z,13.35
2022-10-20T09:49:37.319Z,13.35
2022-10-20T09:50:39.859Z,13.36
2022-10-20T09:51:42.463Z,13.39
2022-10-20T09:52:47.787Z,13.42
2022-10-20T09:54:16.394Z,13.40
2022-10-20T09:55:28.528Z,13.43
2022-10-20T09:56:30.097Z,13.45
2022-10-20T09:57:31.652Z,13.43
2022-10-20T09:58:38.062Z,13.48
2022-10-20T09:59:40.506Z,13.48
2022-10-20T10:00:46.722Z,13.50
2022-10-20T10:01:56.213Z,13.52
2022-10-20T10:03:24.234Z,13.55
2022-10-20T10:04:44.749Z,13.56
2022-10-20T10:05:46.511Z,13.63
2022-10-20T10:06:48.520Z,13.65
2022-10-20T10:07:58.126Z,13.70
2022-10-20T10:09:00.774Z,13.70
2022-10-20T10:10:08.102Z,13.71
2022-10-20T10:11:18.224Z,13.74
2022-10-20T10:12:19.846Z,13.73
2022-10-20T10:13:25.041Z,13.73
2022-10-20T10:14:27.474Z,13.74
2022-10-20T10:15:33.515Z,13.74
2022-10-20T10:16:42.039Z,13.76
2022-10-20T10:17:43.654Z,13.77
2022-10-20T10:18:49.227Z,13.77
2022-10-20T10:19:52.643Z,13.81
2022-10-20T10:21:02.049Z,13.89
2022-10-20T10:22:03.833Z,13.90
2022-10-20T10:23:26.970Z,13.90
2022-10-20T10:24:47.248Z,13.91
2022-10-20T10:25:49.436Z,13.86
2022-10-20T10:26:55.045Z,13.89
2022-10-20T10:28:17.693Z,13.87
2022-10-20T10:29:20.525Z,13.89
2022-10-20T10:30:27.740Z,13.83
2022-10-20T10:31:29.342Z,13.83
2022-10-20T10:32:30.936Z,13.84
2022-10-20T10:33:35.358Z,13.89
2022-10-20T10:34:50.541Z,13.93
2022-10-20T10:35:52.143Z,13.99
2022-10-20T10:36:53.813Z,14.01
2022-10-20T10:37:55.351Z,14.04
2022-10-20T10:38:57.162Z,14.07
2022-10-20T10:39:58.707Z,14.03
2022-10-20T10:41:22.281Z,14.01
2022-10-20T10:42:39.442Z,14.03
2022-10-20T10:44:11.874Z,14.07
2022-10-20T10:45:38.429Z,14.11
2022-10-20T10:48:23.242Z,14.17
2022-10-20T10:50:11.373Z,14.20
2022-10-20T10:51:39.584Z,14.23
2022-10-20T10:53:21.137Z,14.21
2022-10-20T10:54:48.089Z,14.24
2022-10-20T10:56:29.635Z,14.17
2022-10-20T10:57:48.619Z,14.21
2022-10-20T10:59:20.666Z,14.17
2022-10-20T11:00:32.428Z,14.16
2022-10-20T11:01:33.969Z,14.17
2022-10-20T11:02:50.783Z,14.17
2022-10-20T11:04:01.251Z,14.20
2022-10-20T11:05:25.468Z,14.24
2022-10-20T11:06:57.116Z,14.31
2022-10-20T11:08:13.131Z,14.37
2022-10-20T11:09:36.307Z,14.34
2022-10-20T11:11:01.260Z,14.35
2022-10-20T11:12:19.018Z,14.31
2022-10-20T11:13:55.987Z,14.28
2022-10-20T11:15:08.490Z,14.30
2022-10-20T11:16:28.641Z,14.32
2022-10-20T11:17:36.551Z,14.38
2022-10-20T11:19:08.142Z,14.42
2022-10-20T11:20:21.914Z,14.45
2022-10-20T11:21:32.409Z,14.54
2022-10-20T11:22:40.809Z,14.54
2022-10-20T11:24:00.806Z,14.54
2022-10-20T11:25:36.175Z,14.54
2022-10-20T11:26:39.574Z,14.46
2022-10-20T11:27:41.220Z,14.45
2022-10-20T11:28:45.471Z,14.45
2022-10-20T11:29:51.498Z,14.41
2022-10-20T11:30:53.061Z,14.38
2022-10-20T11:32:27.093Z,14.42
2022-10-20T11:33:35.736Z,14.45
2022-10-20T11:35:13.755Z,14.49
2022-10-20T11:36:16.708Z,14.46
2022-10-20T11:37:22.222Z,14.51
2022-10-20T11:38:32.379Z,14.49
2022-10-20T11:39:36.245Z,14.45
2022-10-20T11:40:44.062Z,14.44
2022-10-20T11:41:49.666Z,14.42
2022-10-20T11:43:17.366Z,14.48
2022-10-20T11:44:25.870Z,14.52
2022-10-20T11:45:32.753Z,14.58
2022-10-20T11:46:39.159Z,14.52
2022-10-20T11:47:41.476Z,14.51
2022-10-20T11:48:53.752Z,14.54
2022-10-20T11:49:55.353Z,14.51
2022-10-20T11:51:14.285Z,14.48
2022-10-20T11:52:26.613Z,14.51
2022-10-20T11:54:18.419Z,14.52
2022-10-20T11:55:44.000Z,14.57
2022-10-20T11:56:57.655Z,14.61
2022-10-20T11:58:20.392Z,14.62
2022-10-20T11:59:43.863Z,14.65
2022-10-20T12:01:17.487Z,14.69
2022-10-20T12:02:59.984Z,14.64
2022-10-20T12:04:07.607Z,14.62
2022-10-20T12:05:30.233Z,14.62
2022-10-20T12:06:58.455Z,14.62
2022-10-20T12:08:24.537Z,14.67
2022-10-20T12:09:46.181Z,14.67
2022-10-20T12:11:17.884Z,14.69
2022-10-20T12:12:53.643Z,14.74
2022-10-20T12:14:10.913Z,14.71
2022-10-20T12:15:21.573Z,14.76
2022-10-20T12:17:00.097Z,14.76
2022-10-20T12:18:05.656Z,14.74
2022-10-20T12:19:16.254Z,14.69
2022-10-20T12:20:20.869Z,14.68
2022-10-20T12:22:00.891Z,14.68
2022-10-20T12:23:02.927Z,14.64
2022-10-20T12:24:33.286Z,14.65
2022-10-20T12:25:37.341Z,14.67
2022-10-20T12:26:42.589Z,14.72
2022-10-20T12:27:46.349Z,14.71
2022-10-20T12:28:47.917Z,14.74
2022-10-20T12:29:51.403Z,14.76
2022-10-20T12:30:58.268Z,14.76
2022-10-20T12:32:21.726Z,14.78
2022-10-20T12:33:41.760Z,14.82
2022-10-20T12:34:43.362Z,14.79
2022-10-20T12:36:14.002Z,14.81
2022-10-20T12:37:30.235Z,14.81
2022-10-20T12:38:31.892Z,14.85
2022-10-20T12:39:33.504Z,14.91
2022-10-20T12:40:49.942Z,14.91
2022-10-20T12:41:58.309Z,14.91
2022-10-20T12:43:00.010Z,14.89
2022-10-20T12:44:21.827Z,14.85
2022-10-20T12:45:49.561Z,14.82
2022-10-20T12:47:04.578Z,14.79
2022-10-20T12:48:06.809Z,14.71
2022-10-20T12:49:11.130Z,14.74
2022-10-20T12:50:28.894Z,14.71
2022-10-20T12:51:34.380Z,14.72
2022-10-20T12:52:37.963Z,14.76
2022-10-20T12:53:39.560Z,14.75
2022-10-20T12:54:46.224Z,14.78
2022-10-20T12:55:59.898Z,14.79
2022-10-20T12:57:03.866Z,14.74
2022-10-20T12:58:17.388Z,14.83
2022-10-20T12:59:23.896Z,14.85
2022-10-20T13:00:25.501Z,14.89
2022-10-20T13:01:28.591Z,14.91
2022-10-20T13:02:31.295Z,14.95
2022-10-20T13:03:43.080Z,14.96
2022-10-20T13:04:57.972Z,15.02
2022-10-20T13:05:59.957Z,15.03
2022-10-20T13:07:01.571Z,14.96
2022-10-20T13:08:18.656Z,14.98
2022-10-20T13:09:21.387Z,14.92
2022-10-20T13:10:30.132Z,14.89
2022-10-20T13:11:37.806Z,14.91
2022-10-20T13:12:39.825Z,14.86
2022-10-20T13:13:45.528Z,14.85
2022-10-20T13:14:50.109Z,14.83
2022-10-20T13:15:54.345Z,14.82
2022-10-20T13:17:03.478Z,14.82
2022-10-20T13:18:13.853Z,14.86
2022-10-20T13:19:24.349Z,14.85
2022-10-20T13:20:29.926Z,14.85
2022-10-20T13:21:33.168Z,14.83
2022-10-20T13:22:42.988Z,14.79
2022-10-20T13:23:46.677Z,14.83
2022-10-20T13:24:48.235Z,14.85
2022-10-20T13:25:51.591Z,14.89
2022-10-20T13:26:59.788Z,14.91
2022-10-20T13:28:13.407Z,14.89
2022-10-20T13:29:26.583Z,14.93
2022-10-20T13:30:28.158Z,14.92
2022-10-20T13:31:41.513Z,14.93
2022-10-20T13:33:10.918Z,14.95
2022-10-20T13:34:27.158Z,14.96
2022-10-20T13:35:33.371Z,14.98
2022-10-20T13:36:58.871Z,14.92
2022-10-20T13:38:23.835Z,14.92
2022-10-20T13:39:31.143Z,14.92
2022-10-20T13:41:10.201Z,14.91
2022-10-20T13:42:36.202Z,14.89
2022-10-20T13:43:57.756Z,14.83
2022-10-20T13:45:41.163Z,14.81
2022-10-20T13:46:51.405Z,14.82
2022-10-20T13:48:33.020Z,14.79
2022-10-20T13:49:42.729Z,14.75
2022-10-20T13:50:50.002Z,14.72
2022-10-20T13:51:53.400Z,14.68
2022-10-20T13:52:57.036Z,14.72
2022-10-20T13:54:01.020Z,14.72
2022-10-20T13:55:02.604Z,14.74
2022-10-20T13:56:06.999Z,14.75
2022-10-20T13:57:08.590Z,14.79
2022-10-20T13:58:17.698Z,14.88
2022-10-20T14:00:26.318Z,14.93
2022-10-20T14:01:28.820Z,14.96
2022-10-20T14:02:32.119Z,14.96
2022-10-20T14:03:45.368Z,14.99
2022-10-20T14:04:46.916Z,14.99
2022-10-20T14:05:48.483Z,14.93
2022-10-20T14:06:50.117Z,14.93
2022-10-20T14:07:51.824Z,14.92
2022-10-20T14:08:58.178Z,14.86
2022-10-20T14:10:00.043Z,14.88
2022-10-20T14:11:04.607Z,14.86
2022-10-20T14:12:14.323Z,14.82
2022-10-20T14:13:23.209Z,14.83
2022-10-20T14:14:26.009Z,14.83
2022-10-20T14:15:34.839Z,14.83
2022-10-20T14:16:37.730Z,14.85
2022-10-20T14:17:40.845Z,14.83
2022-10-20T14:18:42.615Z,14.81
2022-10-20T14:19:46.115Z,14.75
2022-10-20T14:20:56.783Z,14.74
2022-10-20T14:22:23.133Z,14.67
2022-10-20T14:23:24.725Z,14.58
2022-10-20T14:24:30.627Z,14.57
2022-10-20T14:25:32.365Z,14.48
2022-10-20T14:26:33.945Z,14.42
2022-10-20T14:27:35.784Z,14.38
2022-10-20T14:28:37.599Z,14.37
2022-10-20T14:29:39.554Z,14.30
2022-10-20T14:30:41.335Z,14.30
2022-10-20T14:31:42.958Z,14.31
2022-10-20T14:32:45.292Z,14.28
2022-10-20T14:33:47.140Z,14.27
2022-10-20T14:34:59.064Z,14.31
2022-10-20T14:36:02.765Z,14.28